createdAt,value
2022-08-05T00:01:29.071Z,27.33
2022-08-05T00:03:56.984Z,27.45
2022-08-05T00:06:32.302Z,27.31
2022-08-05T00:09:00.795Z,27.26
2022-08-05T00:11:34.581Z,27.33
2022-08-05T00:14:02.402Z,27.16
2022-08-05T00:16:52.050Z,27.11
2022-08-05T00:19:23.318Z,27.26
2022-08-05T00:21:51.543Z,27.21
2022-08-05T00:24:24.197Z,27.25
2022-08-05T00:26:52.844Z,27.23
2022-08-05T00:29:22.531Z,27.56
2022-08-05T00:32:10.883Z,27.44
2022-08-05T00:34:55.860Z,27.52
2022-08-05T00:37:23.111Z,27.13
2022-08-05T00:39:57.962Z,27.29
2022-08-05T00:42:39.833Z,27.20
2022-08-05T00:45:11.629Z,27.15
2022-08-05T00:47:56.706Z,27.19
2022-08-05T00:50:25.170Z,27.27
2022-08-05T00:52:53.340Z,27.29
2022-08-05T00:55:21.707Z,27.26
2022-08-05T00:57:58.338Z,27.38
2022-08-05T01:00:27.874Z,27.37
2022-08-05T01:02:55.704Z,27.39
2022-08-05T01:05:22.746Z,27.52
2022-08-05T01:08:29.702Z,27.22
2022-08-05T01:10:54.142Z,27.32
2022-08-05T01:13:59.160Z,27.35
2022-08-05T01:16:44.263Z,27.60
2022-08-05T01:20:02.184Z,27.50
2022-08-05T01:22:47.556Z,27.63
2022-08-05T01:25:50.268Z,27.67
2022-08-05T01:28:27.757Z,27.44
2022-08-05T01:31:20.217Z,27.75
2022-08-05T01:33:55.410Z,27.98
2022-08-05T01:36:28.447Z,27.93
2022-08-05T01:39:00.182Z,28.16
2022-08-05T01:41:32.628Z,27.99
2022-08-05T01:44:01.952Z,28.39
2022-08-05T01:46:41.415Z,28.34
2022-08-05T01:49:22.932Z,28.71
2022-08-05T01:51:55.947Z,28.70
2022-08-05T01:54:27.180Z,29.11
2022-08-05T01:58:18.881Z,28.86
2022-08-05T01:59:47.276Z,29.11
2022-08-05T02:02:16.045Z,29.31
2022-08-05T02:04:46.293Z,29.45
2022-08-05T02:07:22.194Z,29.31
2022-08-05T02:09:50.994Z,29.57
2022-08-05T02:12:32.983Z,29.66
2022-08-05T02:15:12.717Z,29.77
2022-08-05T02:18:28.136Z,29.93
2022-08-05T02:20:44.174Z,30.18
2022-08-05T02:23:14.836Z,30.48
2022-08-05T02:25:49.179Z,30.37
2022-08-05T02:28:29.250Z,30.58
2022-08-05T02:31:07.590Z,30.64
2022-08-05T02:33:39.631Z,30.65
2022-08-05T02:36:13.555Z,30.87
2022-08-05T02:38:53.426Z,30.86
2022-08-05T02:41:22.875Z,30.94
2022-08-05T02:44:06.098Z,31.33
2022-08-05T02:46:53.356Z,31.28
2022-08-05T02:49:36.983Z,31.62
2022-08-05T02:52:08.633Z,31.60
2022-08-05T02:54:41.510Z,31.70
2022-08-05T02:58:09.385Z,31.63
2022-08-05T03:00:01.339Z,31.70
2022-08-05T03:02:33.008Z,31.71
2022-08-05T03:05:01.491Z,32.03
2022-08-05T03:08:01.898Z,32.15
2022-08-05T03:10:21.748Z,32.09
2022-08-05T03:12:53.654Z,32.10
2022-08-05T03:15:23.507Z,32.01
2022-08-05T03:17:53.987Z,32.04
2022-08-05T03:20:24.428Z,32.03
2022-08-05T03:22:52.757Z,32.06
2022-08-05T03:25:32.956Z,31.87
2022-08-05T03:28:08.625Z,31.74
2022-08-05T03:30:36.736Z,31.89
2022-08-05T03:33:07.521Z,32.16
2022-08-05T03:35:41.256Z,32.03
2022-08-05T03:38:14.387Z,32.40
2022-08-05T03:40:45.070Z,32.25
2022-08-05T03:44:08.996Z,32.59
2022-08-05T03:46:02.984Z,32.57
2022-08-05T03:48:30.657Z,32.65
2022-08-05T03:52:49.027Z,32.76
2022-08-05T03:55:53.091Z,33.08
2022-08-05T03:57:16.467Z,33.09
2022-08-05T03:59:54.727Z,33.42
2022-08-05T04:02:38.934Z,33.91
2022-08-05T04:05:12.993Z,32.85
2022-08-05T04:07:57.602Z,32.98
2022-08-05T04:10:31.972Z,32.83
2022-08-05T04:13:00.689Z,32.70
2022-08-05T04:15:33.282Z,33.01
2022-08-05T04:18:07.073Z,32.82
2022-08-05T04:20:34.625Z,32.70
2022-08-05T04:23:01.658Z,32.92
2022-08-05T04:25:57.714Z,32.96
2022-08-05T04:28:15.229Z,33.30
2022-08-05T04:30:44.494Z,33.68
2022-08-05T04:33:12.787Z,33.49
2022-08-05T04:36:15.648Z,33.51
2022-08-05T04:38:39.143Z,33.87
2022-08-05T04:41:06.149Z,34.02
2022-08-05T04:43:34.220Z,34.28
2022-08-05T04:46:01.110Z,34.27
2022-08-05T04:48:28.495Z,34.21
2022-08-05T04:51:03.648Z,33.59
2022-08-05T04:53:38.630Z,33.85
2022-08-05T04:56:32.275Z,34.53
2022-08-05T04:58:54.790Z,34.93
2022-08-05T05:02:06.372Z,35.13
2022-08-05T05:04:08.382Z,35.35
2022-08-05T05:06:44.556Z,35.11
2022-08-05T05:09:17.426Z,34.97
2022-08-05T05:11:54.042Z,35.44
2022-08-05T05:14:31.365Z,36.21
2022-08-05T05:17:00.247Z,36.44
2022-08-05T05:19:36.466Z,36.61
2022-08-05T05:22:22.696Z,36.67
2022-08-05T05:24:58.035Z,36.73
2022-08-05T05:27:41.517Z,38.10
2022-08-05T05:30:29.275Z,38.70
2022-08-05T05:33:00.971Z,39.60
2022-08-05T05:35:37.969Z,39.97
2022-08-05T05:38:13.778Z,40.98
2022-08-05T05:40:49.656Z,42.07
2022-08-05T05:43:27.629Z,42.02
2022-08-05T05:46:13.646Z,42.74
2022-08-05T05:48:44.165Z,43.35
2022-08-05T05:51:15.299Z,44.02
2022-08-05T05:53:54.343Z,43.97
2022-08-05T05:56:32.750Z,44.15
2022-08-05T05:59:06.654Z,44.85
2022-08-05T06:01:39.750Z,45.11
2022-08-05T06:04:12.710Z,44.93
2022-08-05T06:06:47.360Z,46.08
2022-08-05T06:09:17.291Z,45.90
2022-08-05T06:12:01.675Z,45.79
2022-08-05T06:14:33.340Z,46.24
2022-08-05T06:17:01.906Z,46.18
2022-08-05T06:19:57.093Z,47.45
2022-08-05T06:22:35.889Z,47.75
2022-08-05T06:25:24.277Z,47.34
2022-08-05T06:28:10.783Z,47.57
2022-08-05T06:30:38.801Z,47.31
2022-08-05T06:33:09.862Z,47.24
2022-08-05T06:36:07.576Z,46.90
2022-08-05T06:38:36.223Z,47.26
2022-08-05T06:41:04.968Z,46.93
2022-08-05T06:43:58.189Z,46.53
2022-08-05T06:46:18.944Z,46.47
2022-08-05T06:48:55.664Z,46.02
2022-08-05T06:51:29.494Z,46.36
2022-08-05T06:53:59.304Z,46.66
2022-08-05T06:56:27.809Z,46.65
2022-08-05T06:58:55.661Z,46.58
2022-08-05T07:01:22.875Z,46.62
2022-08-05T07:03:49.932Z,46.27
2022-08-05T07:06:20.632Z,46.79
2022-08-05T07:08:51.681Z,46.31
2022-08-05T07:11:25.347Z,46.36
2022-08-05T07:14:20.010Z,46.67
2022-08-05T07:18:00.693Z,46.80
2022-08-05T07:20:29.854Z,46.96
2022-08-05T07:22:28.614Z,47.02
2022-08-05T07:25:23.300Z,47.27
2022-08-05T07:27:57.087Z,46.71
2022-08-05T07:30:32.057Z,46.66
2022-08-05T07:33:00.939Z,46.54
2022-08-05T07:36:02.762Z,46.38
2022-08-05T07:38:33.677Z,46.23
2022-08-05T07:42:07.317Z,46.14
2022-08-05T07:43:51.235Z,45.84
2022-08-05T07:46:23.532Z,45.47
2022-08-05T07:49:01.397Z,45.46
2022-08-05T07:51:40.362Z,45.35
2022-08-05T07:54:09.624Z,45.43
2022-08-05T07:57:01.237Z,45.58
2022-08-05T07:59:39.047Z,45.70
2022-08-05T08:02:15.291Z,46.06
2022-08-05T08:04:43.143Z,46.18
2022-08-05T08:07:12.370Z,45.60
2022-08-05T08:09:39.137Z,45.04
2022-08-05T08:12:15.932Z,44.88
2022-08-05T08:14:47.192Z,44.30
2022-08-05T08:17:16.220Z,44.24
2022-08-05T08:20:22.309Z,43.79
2022-08-05T08:22:32.401Z,43.90
2022-08-05T08:25:03.374Z,43.85
2022-08-05T08:27:35.651Z,43.10
2022-08-05T08:30:30.188Z,42.64
2022-08-05T08:33:01.709Z,42.55
2022-08-05T08:35:35.036Z,41.77
2022-08-05T08:38:11.604Z,41.03
2022-08-05T08:40:48.934Z,40.79
2022-08-05T08:45:16.519Z,40.80
2022-08-05T08:46:09.898Z,40.25
2022-08-05T08:48:59.694Z,40.06
2022-08-05T08:52:03.623Z,39.35
2022-08-05T08:54:18.379Z,39.37
2022-08-05T08:56:45.144Z,39.86
2022-08-05T08:59:19.381Z,39.37
2022-08-05T09:01:57.338Z,39.22
2022-08-05T09:04:30.335Z,39.05
2022-08-05T09:06:58.446Z,38.65
2022-08-05T09:09:34.554Z,38.46
2022-08-05T09:12:14.409Z,38.24
2022-08-05T09:14:58.065Z,38.49
2022-08-05T09:17:42.618Z,38.74
2022-08-05T09:20:13.263Z,38.45
2022-08-05T09:23:19.137Z,37.49
2022-08-05T09:26:02.703Z,38.09
2022-08-05T09:28:33.427Z,37.84
2022-08-05T09:31:23.330Z,37.58
2022-08-05T09:33:59.286Z,37.61
2022-08-05T09:36:55.279Z,37.47
2022-08-05T09:39:41.550Z,37.19
2022-08-05T09:42:24.048Z,36.02
2022-08-05T09:44:57.505Z,36.24
2022-08-05T09:47:36.540Z,36.22
2022-08-05T09:50:37.586Z,35.55
2022-08-05T09:53:05.059Z,35.59
2022-08-05T09:55:56.699Z,34.73
2022-08-05T09:58:23.745Z,34.80
2022-08-05T10:01:02.216Z,34.66
2022-08-05T10:03:58.915Z,34.44
2022-08-05T10:06:28.075Z,34.71
2022-08-05T10:08:55.785Z,34.22
2022-08-05T10:11:23.004Z,33.83
2022-08-05T10:13:49.826Z,34.13
2022-08-05T10:16:41.721Z,33.67
2022-08-05T10:19:23.462Z,33.41
2022-08-05T10:21:58.657Z,33.49
2022-08-05T10:24:27.105Z,33.09
2022-08-05T10:27:00.304Z,32.99
2022-08-05T10:30:49.530Z,32.02
2022-08-05T10:32:52.645Z,31.74
2022-08-05T10:35:03.959Z,31.25
2022-08-05T10:37:41.368Z,30.39
2022-08-05T10:40:22.343Z,31.19
2022-08-05T10:43:00.433Z,31.31
2022-08-05T10:45:30.695Z,30.42
2022-08-05T10:48:30.629Z,30.28
2022-08-05T10:51:21.975Z,29.05
2022-08-05T10:53:58.574Z,29.95
2022-08-05T10:56:53.302Z,29.72
2022-08-05T11:00:04.429Z,30.04
2022-08-05T11:02:34.943Z,29.95
2022-08-05T11:05:09.472Z,29.83
2022-08-05T11:08:12.739Z,30.93
2022-08-05T11:10:50.278Z,30.34
2022-08-05T11:13:55.069Z,30.27
2022-08-05T11:16:47.491Z,30.96
2022-08-05T11:20:17.583Z,31.66
2022-08-05T11:22:49.729Z,31.36
2022-08-05T11:26:04.903Z,30.95
2022-08-05T11:28:35.873Z,30.67
2022-08-05T11:31:06.529Z,30.53
2022-08-05T11:33:48.210Z,30.17
2022-08-05T11:36:34.669Z,30.78
2022-08-05T11:39:08.799Z,30.14
2022-08-05T11:42:01.232Z,30.08
2022-08-05T11:44:52.966Z,29.78
2022-08-05T11:47:49.831Z,29.84
2022-08-05T11:50:14.447Z,29.85
2022-08-05T11:52:48.838Z,29.19
2022-08-05T11:55:17.065Z,29.47
2022-08-05T11:58:10.416Z,29.51
2022-08-05T12:00:37.984Z,29.98
2022-08-05T12:03:28.548Z,30.83
2022-08-05T12:06:03.107Z,30.52
2022-08-05T12:08:33.791Z,30.43
2022-08-05T12:11:05.705Z,30.56
2022-08-05T12:13:48.403Z,29.99
2022-08-05T12:16:20.459Z,30.69
2022-08-05T12:18:57.682Z,29.80
2022-08-05T12:21:30.068Z,28.90
2022-08-05T12:24:08.922Z,28.80
2022-08-05T12:26:44.839Z,28.60
2022-08-05T12:29:17.904Z,28.06
2022-08-05T12:31:53.953Z,28.43
2022-08-05T12:34:28.447Z,28.88
2022-08-05T12:36:58.812Z,28.30
2022-08-05T12:39:27.958Z,28.83
2022-08-05T12:42:02.429Z,29.47
2022-08-05T12:44:34.046Z,29.69
2022-08-05T12:47:02.213Z,30.17
2022-08-05T12:50:03.202Z,30.02
2022-08-05T12:52:38.502Z,30.46
2022-08-05T12:55:25.488Z,30.37
2022-08-05T12:58:51.067Z,30.90
2022-08-05T13:02:03.018Z,30.86
2022-08-05T13:03:32.610Z,30.78
2022-08-05T13:06:01.313Z,30.61
2022-08-05T13:08:32.324Z,30.74
2022-08-05T13:11:01.301Z,30.50
2022-08-05T13:14:06.053Z,31.08
2022-08-05T13:16:17.402Z,31.47
2022-08-05T13:18:58.865Z,31.46
2022-08-05T13:21:37.870Z,31.44
2022-08-05T13:24:27.760Z,31.68
2022-08-05T13:27:04.137Z,32.07
2022-08-05T13:29:37.547Z,32.69
2022-08-05T13:32:05.555Z,32.57
2022-08-05T13:34:32.979Z,31.79
2022-08-05T13:37:00.494Z,31.61
2022-08-05T13:40:16.783Z,31.98
2022-08-05T13:42:15.270Z,31.80
2022-08-05T13:44:46.309Z,31.46
2022-08-05T13:47:36.006Z,31.48
2022-08-05T13:50:09.548Z,31.18
2022-08-05T13:52:41.251Z,30.64
2022-08-05T13:55:09.891Z,31.13
2022-08-05T13:57:50.545Z,29.96
2022-08-05T14:00:19.744Z,30.48
2022-08-05T14:02:54.242Z,29.40
2022-08-05T14:05:29.699Z,29.73
2022-08-05T14:08:10.934Z,29.04
2022-08-05T14:10:47.702Z,28.45
2022-08-05T14:13:15.278Z,28.17
2022-08-05T14:16:05.574Z,28.05
2022-08-05T14:18:29.322Z,28.21
2022-08-05T14:20:56.040Z,28.39
2022-08-05T14:23:25.440Z,29.52
2022-08-05T14:25:58.822Z,30.94
2022-08-05T14:28:29.368Z,31.50
2022-08-05T14:31:00.790Z,30.79
2022-08-05T14:33:57.067Z,31.11
2022-08-05T14:36:21.317Z,30.40
2022-08-05T14:38:50.058Z,30.50
2022-08-05T14:41:18.536Z,30.10
2022-08-05T14:43:58.953Z,30.50
2022-08-05T14:46:30.602Z,30.65
2022-08-05T14:48:59.697Z,31.21
2022-08-05T14:54:27.665Z,30.67
2022-08-05T14:56:56.503Z,30.65
2022-08-05T14:59:23.548Z,30.80
2022-08-05T15:01:50.514Z,30.66
2022-08-05T15:04:20.546Z,31.11
2022-08-05T15:06:51.801Z,30.87
2022-08-05T15:09:51.495Z,31.32
2022-08-05T15:12:07.085Z,31.32
2022-08-05T15:14:48.247Z,31.31
2022-08-05T15:17:47.674Z,31.46
2022-08-05T15:20:05.041Z,31.52
2022-08-05T15:22:31.751Z,31.66
2022-08-05T15:24:59.331Z,31.45
2022-08-05T15:27:26.398Z,31.21
2022-08-05T15:29:59.289Z,30.92
2022-08-05T15:32:26.690Z,31.29
2022-08-05T15:34:55.376Z,31.07
2022-08-05T15:38:31.935Z,31.56
2022-08-05T15:40:59.836Z,31.49
2022-08-05T15:43:07.950Z,31.55
2022-08-05T15:45:39.009Z,31.30
2022-08-05T15:48:06.852Z,31.36
2022-08-05T15:50:33.931Z,31.70
2022-08-05T15:53:06.354Z,32.31
2022-08-05T15:56:03.920Z,32.43
2022-08-05T15:58:23.239Z,32.58
2022-08-05T16:01:04.319Z,32.75
2022-08-05T16:03:40.975Z,32.75
2022-08-05T16:06:09.326Z,32.41
2022-08-05T16:08:38.375Z,32.96
2022-08-05T16:11:05.284Z,32.61
2022-08-05T16:13:34.726Z,33.20
2022-08-05T16:16:04.765Z,33.17
2022-08-05T16:18:33.019Z,33.41
2022-08-05T16:21:04.327Z,33.57
2022-08-05T16:23:33.102Z,34.32
2022-08-05T16:26:19.165Z,34.07
2022-08-05T16:28:53.034Z,33.84
2022-08-05T16:31:21.333Z,34.10
2022-08-05T16:33:48.409Z,34.13
2022-08-05T16:36:20.160Z,33.52
2022-08-05T16:38:54.757Z,33.55
2022-08-05T16:42:14.655Z,33.79
2022-08-05T16:44:13.830Z,34.16
2022-08-05T16:46:56.109Z,34.16
2022-08-05T16:49:23.614Z,34.27
2022-08-05T16:51:54.777Z,33.72
2022-08-05T16:54:27.529Z,34.20
2022-08-05T16:56:58.937Z,33.67
2022-08-05T16:59:27.683Z,33.82
2022-08-05T17:01:55.694Z,33.60
2022-08-05T17:04:28.184Z,34.12
2022-08-05T17:07:01.863Z,33.82
2022-08-05T17:09:38.957Z,34.45
2022-08-05T17:12:17.885Z,34.75
2022-08-05T17:14:49.697Z,38.40
2022-08-05T17:17:16.537Z,40.57
2022-08-05T17:19:46.437Z,41.90
2022-08-05T17:22:24.409Z,43.85
2022-08-05T17:24:57.807Z,45.03
2022-08-05T17:27:27.226Z,45.41
2022-08-05T17:30:02.674Z,45.72
2022-08-05T17:32:30.180Z,46.65
2022-08-05T17:35:00.569Z,47.72
2022-08-05T17:37:41.232Z,47.88
2022-08-05T17:40:14.952Z,48.49
2022-08-05T17:42:49.707Z,49.31
2022-08-05T17:45:29.488Z,49.48
2022-08-05T17:47:56.489Z,49.94
2022-08-05T17:50:28.149Z,50.20
2022-08-05T17:53:01.533Z,50.64
2022-08-05T17:55:38.332Z,50.42
2022-08-05T17:58:09.586Z,50.47
2022-08-05T18:00:44.251Z,50.77
2022-08-05T18:03:12.141Z,51.08
2022-08-05T18:05:55.298Z,51.67
2022-08-05T18:08:28.359Z,52.37
2022-08-05T18:10:55.036Z,52.57
2022-08-05T18:13:21.790Z,52.63
2022-08-05T18:15:52.499Z,54.18
2022-08-05T18:18:21.311Z,52.78
2022-08-05T18:20:53.211Z,52.86
2022-08-05T18:23:21.909Z,53.16
2022-08-05T18:25:57.378Z,53.29
2022-08-05T18:28:28.454Z,52.97
2022-08-05T18:30:55.234Z,53.58
2022-08-05T18:33:23.094Z,52.39
2022-08-05T18:36:03.363Z,51.77
2022-08-05T18:38:35.973Z,51.75
2022-08-05T18:41:55.277Z,51.51
2022-08-05T18:43:50.632Z,51.20
2022-08-05T18:46:19.842Z,50.56
2022-08-05T18:48:52.494Z,50.66
2022-08-05T18:52:06.598Z,50.78
2022-08-05T18:54:27.559Z,50.35
2022-08-05T18:56:57.583Z,50.43
2022-08-05T18:59:43.058Z,50.61
2022-08-05T19:02:28.323Z,50.69
2022-08-05T19:05:02.193Z,50.92
2022-08-05T19:07:46.597Z,50.79
2022-08-05T19:10:19.073Z,50.60
2022-08-05T19:12:54.508Z,50.32
2022-08-05T19:15:57.788Z,50.17
2022-08-05T19:18:10.442Z,50.08
2022-08-05T19:20:41.592Z,49.67
2022-08-05T19:24:04.235Z,49.60
2022-08-05T19:26:01.848Z,49.64
2022-08-05T19:28:30.914Z,49.62
2022-08-05T19:30:57.909Z,49.50
2022-08-05T19:33:35.437Z,49.33
2022-08-05T19:36:06.597Z,49.10
2022-08-05T19:38:35.951Z,48.89
2022-08-05T19:41:07.317Z,48.85
2022-08-05T19:44:06.491Z,49.07
2022-08-05T19:46:29.406Z,48.27
2022-08-05T19:49:03.572Z,48.03
2022-08-05T19:52:09.061Z,48.10
2022-08-05T19:54:29.476Z,48.04
2022-08-05T19:56:59.884Z,47.68
2022-08-05T19:59:56.037Z,47.82
2022-08-05T20:02:17.563Z,47.77
2022-08-05T20:04:46.240Z,48.03
2022-08-05T20:07:15.466Z,48.04
2022-08-05T20:09:54.421Z,48.05
2022-08-05T20:12:24.413Z,48.24
2022-08-05T20:14:52.939Z,47.97
2022-08-05T20:17:23.257Z,48.27
2022-08-05T20:19:51.097Z,48.49
2022-08-05T20:22:25.077Z,48.57
2022-08-05T20:24:55.292Z,48.34
2022-08-05T20:27:26.926Z,48.21
2022-08-05T20:29:57.655Z,48.40
2022-08-05T20:32:25.435Z,48.64
2022-08-05T20:34:52.232Z,48.30
2022-08-05T20:38:04.658Z,48.08
2022-08-05T20:40:07.064Z,47.67
2022-08-05T20:42:34.763Z,47.99
2022-08-05T20:45:03.044Z,47.66
2022-08-05T20:47:32.017Z,47.64
2022-08-05T20:49:59.769Z,47.74
2022-08-05T20:52:29.514Z,47.85
2022-08-05T20:55:54.197Z,47.56
2022-08-05T20:57:44.831Z,47.44
2022-08-05T21:00:35.073Z,47.65
2022-08-05T21:03:04.857Z,48.14
2022-08-05T21:05:48.214Z,48.31
2022-08-05T21:08:47.362Z,48.38
2022-08-05T21:12:08.866Z,48.25
2022-08-05T21:14:02.673Z,47.95
2022-08-05T21:16:30.774Z,48.06
2022-08-05T21:19:01.888Z,47.84
2022-08-05T21:21:39.206Z,47.98
2022-08-05T21:24:12.998Z,48.21
2022-08-05T21:26:41.224Z,48.15
2022-08-05T21:29:10.083Z,48.13
2022-08-05T21:31:41.283Z,48.57
2022-08-05T21:34:10.422Z,48.86
2022-08-05T21:36:38.746Z,50.12
2022-08-05T21:39:05.670Z,50.93
2022-08-05T21:41:36.318Z,51.41
2022-08-05T21:44:05.053Z,51.88
2022-08-05T21:46:34.329Z,52.04
2022-08-05T21:49:04.572Z,51.53
2022-08-05T21:52:22.886Z,51.95
2022-08-05T21:54:27.797Z,51.95
2022-08-05T21:57:15.444Z,52.08
2022-08-05T22:00:02.137Z,51.69
2022-08-05T22:02:41.732Z,51.59
2022-08-05T22:05:11.775Z,50.75
2022-08-05T22:08:01.981Z,51.17
2022-08-05T22:10:27.564Z,51.58
2022-08-05T22:12:57.274Z,51.58
2022-08-05T22:16:04.680Z,51.60
2022-08-05T22:18:12.323Z,51.52
2022-08-05T22:20:41.357Z,52.22
2022-08-05T22:24:02.056Z,52.51
2022-08-05T22:26:33.730Z,52.80
2022-08-05T22:29:00.474Z,53.21
2022-08-05T22:31:29.907Z,53.61
2022-08-05T22:34:01.245Z,53.60
2022-08-05T22:36:29.237Z,53.32
2022-08-05T22:38:56.446Z,53.76
2022-08-05T22:42:04.266Z,53.82
2022-08-05T22:44:11.820Z,53.73
2022-08-05T22:46:40.659Z,53.73
2022-08-05T22:49:46.162Z,53.89
2022-08-05T22:52:04.288Z,53.93
2022-08-05T22:54:33.643Z,54.09
2022-08-05T22:57:00.405Z,54.20
2022-08-05T22:59:45.218Z,53.60
2022-08-05T23:02:28.750Z,53.72
2022-08-05T23:04:55.855Z,54.90
2022-08-05T23:07:22.588Z,54.50
2022-08-05T23:09:57.728Z,54.53
2022-08-05T23:12:32.732Z,54.75
2022-08-05T23:15:03.421Z,54.62
2022-08-05T23:17:34.450Z,54.93
2022-08-05T23:20:10.425Z,54.57
2022-08-05T23:22:43.885Z,54.75
2022-08-05T23:25:17.564Z,55.22
2022-08-05T23:28:02.443Z,54.75
2022-08-05T23:30:31.302Z,54.28
2022-08-05T23:32:58.866Z,54.35
2022-08-05T23:35:28.429Z,54.49
2022-08-05T23:38:01.086Z,53.99
2022-08-05T23:40:27.777Z,54.16
2022-08-05T23:42:54.666Z,56.64
2022-08-05T23:45:23.770Z,64.87
2022-08-05T23:47:53.871Z,68.33
2022-08-05T23:50:26.529Z,69.22
2022-08-05T23:52:55.386Z,70.32
2022-08-05T23:55:22.516Z,70.40
2022-08-05T23:57:57.853Z,67.70
